<?xml version="1.0" encoding="utf-8"?>
<gpx xmlns:xsi="http://www.w3.org/2001/XMLSchema-instance" xmlns:xsd="http://www.w3.org/2001/XMLSchema" version="1.1" creator="Shapelink.com" xmlns="http://www.topografix.com/GPX/1/1" xmlns:gpxtpx="http://www.garmin.com/xmlschemas/TrackPointExtension/v1">
  <metadata>
    <name>Övrigt 1.34 km, 2020-07-23</name>
    <desc></desc>
    <author><name>Marian Moron</name></author> 
    <time>2020-07-23T00:51:46Z</time>
  </metadata>
  <trk>
    <name>Övrigt 1.34 km, 2020-07-23</name>
    <trkseg>
      <trkpt lat="51.229047697563" lon="4.458049804694">
        <ele>8.6</ele>
        <time>2020-07-23T00:51:46Z</time>
      </trkpt>
      <trkpt lat="51.228595158782" lon="4.458205372758">
        <ele>8.8</ele>
        <time>2020-07-23T00:52:25Z</time>
      </trkpt>
      <trkpt lat="51.228555177119" lon="4.458345518126">
        <ele>7.4</ele>
        <time>2020-07-23T00:52:43Z</time>
      </trkpt>
      <trkpt lat="51.228624076337" lon="4.45879193812">
        <ele>7.6</ele>
        <time>2020-07-23T00:53:18Z</time>
      </trkpt>
      <trkpt lat="51.228753325235" lon="4.459109947406">
        <ele>8.8</ele>
        <time>2020-07-23T00:53:48Z</time>
      </trkpt>
      <trkpt lat="51.22896748278" lon="4.459048759536">
        <ele>7.4</ele>
        <time>2020-07-23T00:54:19Z</time>
      </trkpt>
      <trkpt lat="51.228985252408" lon="4.459043059844">
        <ele>7.2</ele>
        <time>2020-07-23T00:54:21Z</time>
      </trkpt>
      <trkpt lat="51.22939495968" lon="4.45893023947">
        <ele>0</ele>
        <time>2020-07-23T00:55:09Z</time>
      </trkpt>
      <trkpt lat="51.229602327886" lon="4.458871901446">
        <ele>0</ele>
        <time>2020-07-23T00:55:45Z</time>
      </trkpt>
      <trkpt lat="51.229959815921" lon="4.458740892349">
        <ele>0</ele>
        <time>2020-07-23T00:56:35Z</time>
      </trkpt>
      <trkpt lat="51.230333229566" lon="4.458919175362">
        <ele>2</ele>
        <time>2020-07-23T00:57:41Z</time>
      </trkpt>
      <trkpt lat="51.230451162899" lon="4.459505740724">
        <ele>0</ele>
        <time>2020-07-23T00:59:09Z</time>
      </trkpt>
      <trkpt lat="51.230555769011" lon="4.460143854771">
        <ele>0</ele>
        <time>2020-07-23T01:00:18Z</time>
      </trkpt>
      <trkpt lat="51.230613604121" lon="4.460672920299">
        <ele>5.4</ele>
        <time>2020-07-23T01:02:06Z</time>
      </trkpt>
      <trkpt lat="51.230330212082" lon="4.460815077323">
        <ele>11.4</ele>
        <time>2020-07-23T01:02:48Z</time>
      </trkpt>
      <trkpt lat="51.229969706563" lon="4.460881964885">
        <ele>11.4</ele>
        <time>2020-07-23T01:03:30Z</time>
      </trkpt>
      <trkpt lat="51.229683213221" lon="4.4609393809">
        <ele>21.4</ele>
        <time>2020-07-23T01:04:13Z</time>
      </trkpt>
      <trkpt lat="51.229598807488" lon="4.460954300682">
        <ele>12.4</ele>
        <time>2020-07-23T01:04:25Z</time>
      </trkpt>
      <trkpt lat="51.229331760154" lon="4.461045411935">
        <ele>0</ele>
        <time>2020-07-23T01:05:09Z</time>
      </trkpt>
      <trkpt lat="51.228877042079" lon="4.461043065003">
        <ele>2.8</ele>
        <time>2020-07-23T01:05:54Z</time>
      </trkpt>
      <trkpt lat="51.228430873542" lon="4.461006939014">
        <ele>7.2</ele>
        <time>2020-07-23T01:06:44Z</time>
      </trkpt>
      <trkpt lat="51.228334565511" lon="4.460850029846">
        <ele>9</ele>
        <time>2020-07-23T01:06:57Z</time>
      </trkpt>
      <trkpt lat="51.228204478423" lon="4.460607541479">
        <ele>6.2</ele>
        <time>2020-07-23T01:07:25Z</time>
      </trkpt>
      <trkpt lat="51.228129208961" lon="4.460282156121">
        <ele>0</ele>
        <time>2020-07-23T01:07:53Z</time>
      </trkpt>
      <trkpt lat="51.228290141441" lon="4.460053916984">
        <ele>0</ele>
        <time>2020-07-23T01:08:37Z</time>
      </trkpt>
      <trkpt lat="51.228408577688" lon="4.459586709878">
        <ele>0.8</ele>
        <time>2020-07-23T01:09:23Z</time>
      </trkpt>
      <trkpt lat="51.22851066923" lon="4.459028726795">
        <ele>0</ele>
        <time>2020-07-23T01:10:53Z</time>
      </trkpt>
      <trkpt lat="51.22851569837" lon="4.45901070571">
        <ele>0</ele>
        <time>2020-07-23T01:10:54Z</time>
      </trkpt>
      <trkpt lat="51.228479488562" lon="4.458304698273">
        <ele>0</ele>
        <time>2020-07-23T01:11:37Z</time>
      </trkpt>
      <trkpt lat="51.228488708652" lon="4.458242504575">
        <ele>0</ele>
        <time>2020-07-23T01:11:41Z</time>
      </trkpt>
      <trkpt lat="51.22843439394" lon="4.4575363295">
        <ele>3.2</ele>
        <time>2020-07-23T01:12:31Z</time>
      </trkpt>
      <trkpt lat="51.22829441621" lon="4.457347904388">
        <ele>0.2</ele>
        <time>2020-07-23T01:12:50Z</time>
      </trkpt>
      <trkpt lat="51.228171705194" lon="4.457181439854">
        <ele>22.4</ele>
        <time>2020-07-23T01:13:32Z</time>
      </trkpt>
      <trkpt lat="51.228484098607" lon="4.457334828624">
        <ele>11.4</ele>
        <time>2020-07-23T01:14:11Z</time>
      </trkpt>
      <trkpt lat="51.22850396371" lon="4.45760841384">
        <ele>7.6</ele>
        <time>2020-07-23T01:14:27Z</time>
      </trkpt>
      <trkpt lat="51.228538664776" lon="4.457819972996">
        <ele>5.6</ele>
        <time>2020-07-23T01:14:41Z</time>
      </trkpt>
      <trkpt lat="51.22858107719" lon="4.458094983135">
        <ele>3.6</ele>
        <time>2020-07-23T01:14:54Z</time>
      </trkpt>
      <trkpt lat="51.228617035541" lon="4.45810881327">
        <ele>5.2</ele>
        <time>2020-07-23T01:14:58Z</time>
      </trkpt>
      <trkpt lat="51.228716780151" lon="4.458089283443">
        <ele>8.6</ele>
        <time>2020-07-23T01:15:11Z</time>
      </trkpt>
      <trkpt lat="51.228939235777" lon="4.458055504386">
        <ele>15.8</ele>
        <time>2020-07-23T01:15:40Z</time>
      </trkpt>
      <trkpt lat="51.229006123339" lon="4.458079811896">
        <ele>18</ele>
        <time>2020-07-23T01:15:48Z</time>
      </trkpt>
      <trkpt lat="51.229377944423" lon="4.457955759776">
        <ele>18.6</ele>
        <time>2020-07-23T01:16:25Z</time>
      </trkpt>
      <trkpt lat="51.229439970483" lon="4.457937990148">
        <ele>17.4</ele>
        <time>2020-07-23T01:16:31Z</time>
      </trkpt>
    </trkseg>
  </trk>
</gpx>